sensor_id;sensor_type;location;lat;lon;timestamp;P1;durP1;ratioP1;P2;durP2;ratioP2
31728;SDS011;18309;43.658;1.312;2023-05-31T00:00:17;9.13;;;5.00;;
31728;SDS011;18309;43.658;1.312;2023-05-31T00:02:42;10.55;;;5.43;;
31728;SDS011;18309;43.658;1.312;2023-05-31T00:05:08;11.48;;;4.88;;
31728;SDS011;18309;43.658;1.312;2023-05-31T00:07:34;9.48;;;4.57;;
31728;SDS011;18309;43.658;1.312;2023-05-31T00:10:00;12.02;;;5.18;;
31728;SDS011;18309;43.658;1.312;2023-05-31T00:12:26;12.68;;;5.28;;
31728;SDS011;18309;43.658;1.312;2023-05-31T00:14:51;10.55;;;4.72;;
31728;SDS011;18309;43.658;1.312;2023-05-31T00:17:17;9.90;;;4.65;;
31728;SDS011;18309;43.658;1.312;2023-05-31T00:19:43;9.63;;;4.43;;
31728;SDS011;18309;43.658;1.312;2023-05-31T00:22:08;11.80;;;5.32;;
31728;SDS011;18309;43.658;1.312;2023-05-31T00:24:35;13.70;;;5.10;;
31728;SDS011;18309;43.658;1.312;2023-05-31T00:27:01;7.85;;;4.97;;
31728;SDS011;18309;43.658;1.312;2023-05-31T00:29:27;11.88;;;4.53;;
31728;SDS011;18309;43.658;1.312;2023-05-31T00:31:53;8.43;;;4.43;;
31728;SDS011;18309;43.658;1.312;2023-05-31T00:34:19;7.68;;;4.38;;
31728;SDS011;18309;43.658;1.312;2023-05-31T00:36:45;8.20;;;4.47;;
31728;SDS011;18309;43.658;1.312;2023-05-31T00:39:11;8.30;;;4.50;;
31728;SDS011;18309;43.658;1.312;2023-05-31T00:41:36;10.05;;;4.53;;
31728;SDS011;18309;43.658;1.312;2023-05-31T00:44:02;8.52;;;4.72;;
31728;SDS011;18309;43.658;1.312;2023-05-31T00:46:28;13.15;;;5.03;;
31728;SDS011;18309;43.658;1.312;2023-05-31T00:48:56;14.35;;;4.78;;
31728;SDS011;18309;43.658;1.312;2023-05-31T00:51:24;13.82;;;4.78;;
31728;SDS011;18309;43.658;1.312;2023-05-31T00:53:51;11.65;;;4.75;;
31728;SDS011;18309;43.658;1.312;2023-05-31T00:56:17;11.15;;;4.45;;
31728;SDS011;18309;43.658;1.312;2023-05-31T00:58:44;10.05;;;4.32;;
31728;SDS011;18309;43.658;1.312;2023-05-31T01:01:12;10.18;;;4.40;;
31728;SDS011;18309;43.658;1.312;2023-05-31T01:03:38;11.25;;;4.53;;
31728;SDS011;18309;43.658;1.312;2023-05-31T01:06:05;15.98;;;4.30;;
31728;SDS011;18309;43.658;1.312;2023-05-31T01:08:31;6.75;;;4.20;;
31728;SDS011;18309;43.658;1.312;2023-05-31T01:10:58;8.15;;;4.43;;
31728;SDS011;18309;43.658;1.312;2023-05-31T01:13:52;6.90;;;3.92;;
31728;SDS011;18309;43.658;1.312;2023-05-31T01:16:34;9.77;;;5.20;;
31728;SDS011;18309;43.658;1.312;2023-05-31T01:19:07;14.68;;;4.40;;
31728;SDS011;18309;43.658;1.312;2023-05-31T01:26:56;11.70;;;4.32;;
31728;SDS011;18309;43.658;1.312;2023-05-31T01:29:26;11.50;;;4.60;;
31728;SDS011;18309;43.658;1.312;2023-05-31T01:31:54;10.43;;;4.40;;
31728;SDS011;18309;43.658;1.312;2023-05-31T01:34:23;8.40;;;3.90;;
31728;SDS011;18309;43.658;1.312;2023-05-31T01:36:49;10.50;;;4.75;;
31728;SDS011;18309;43.658;1.312;2023-05-31T01:39:15;10.50;;;4.53;;
31728;SDS011;18309;43.658;1.312;2023-05-31T01:41:42;13.02;;;3.67;;
31728;SDS011;18309;43.658;1.312;2023-05-31T01:44:09;12.27;;;4.40;;
31728;SDS011;18309;43.658;1.312;2023-05-31T01:46:36;9.80;;;4.00;;
31728;SDS011;18309;43.658;1.312;2023-05-31T01:49:03;9.20;;;4.53;;
31728;SDS011;18309;43.658;1.312;2023-05-31T01:51:29;14.57;;;4.45;;
31728;SDS011;18309;43.658;1.312;2023-05-31T01:53:57;9.65;;;4.38;;
31728;SDS011;18309;43.658;1.312;2023-05-31T01:56:23;13.15;;;4.63;;
31728;SDS011;18309;43.658;1.312;2023-05-31T01:58:50;8.65;;;4.15;;
31728;SDS011;18309;43.658;1.312;2023-05-31T02:01:17;12.10;;;4.30;;
31728;SDS011;18309;43.658;1.312;2023-05-31T02:03:43;9.10;;;4.30;;
31728;SDS011;18309;43.658;1.312;2023-05-31T02:06:09;13.35;;;4.20;;
31728;SDS011;18309;43.658;1.312;2023-05-31T02:08:38;11.23;;;4.18;;
31728;SDS011;18309;43.658;1.312;2023-05-31T02:11:05;10.75;;;4.10;;
31728;SDS011;18309;43.658;1.312;2023-05-31T02:13:31;11.27;;;4.55;;
31728;SDS011;18309;43.658;1.312;2023-05-31T02:15:57;11.85;;;4.20;;
31728;SDS011;18309;43.658;1.312;2023-05-31T02:18:23;13.57;;;3.95;;
31728;SDS011;18309;43.658;1.312;2023-05-31T02:20:53;6.00;;;3.75;;
31728;SDS011;18309;43.658;1.312;2023-05-31T02:23:19;8.88;;;4.70;;
31728;SDS011;18309;43.658;1.312;2023-05-31T02:25:46;8.40;;;4.15;;
31728;SDS011;18309;43.658;1.312;2023-05-31T02:28:13;9.98;;;4.00;;
31728;SDS011;18309;43.658;1.312;2023-05-31T02:30:39;11.45;;;3.92;;
31728;SDS011;18309;43.658;1.312;2023-05-31T02:33:05;11.43;;;4.40;;
31728;SDS011;18309;43.658;1.312;2023-05-31T02:35:32;8.75;;;4.40;;
31728;SDS011;18309;43.658;1.312;2023-05-31T02:37:58;13.38;;;4.15;;
31728;SDS011;18309;43.658;1.312;2023-05-31T02:40:23;7.32;;;3.97;;
31728;SDS011;18309;43.658;1.312;2023-05-31T02:42:49;9.73;;;3.95;;
31728;SDS011;18309;43.658;1.312;2023-05-31T02:45:15;10.00;;;3.53;;
31728;SDS011;18309;43.658;1.312;2023-05-31T02:47:41;8.73;;;3.33;;
31728;SDS011;18309;43.658;1.312;2023-05-31T02:50:07;9.05;;;4.40;;
31728;SDS011;18309;43.658;1.312;2023-05-31T02:52:35;11.45;;;4.15;;
31728;SDS011;18309;43.658;1.312;2023-05-31T02:55:01;12.50;;;4.18;;
31728;SDS011;18309;43.658;1.312;2023-05-31T02:57:27;9.60;;;4.38;;
31728;SDS011;18309;43.658;1.312;2023-05-31T02:59:56;10.32;;;4.03;;
31728;SDS011;18309;43.658;1.312;2023-05-31T03:02:23;8.75;;;4.20;;
31728;SDS011;18309;43.658;1.312;2023-05-31T03:04:49;14.38;;;4.22;;
31728;SDS011;18309;43.658;1.312;2023-05-31T03:07:16;13.95;;;4.32;;
31728;SDS011;18309;43.658;1.312;2023-05-31T03:09:42;11.38;;;4.50;;
31728;SDS011;18309;43.658;1.312;2023-05-31T03:12:07;21.48;;;4.85;;
31728;SDS011;18309;43.658;1.312;2023-05-31T03:14:34;14.02;;;4.72;;
31728;SDS011;18309;43.658;1.312;2023-05-31T03:17:00;8.23;;;3.92;;
31728;SDS011;18309;43.658;1.312;2023-05-31T03:19:25;9.25;;;4.45;;
31728;SDS011;18309;43.658;1.312;2023-05-31T03:21:51;14.68;;;4.65;;
31728;SDS011;18309;43.658;1.312;2023-05-31T03:24:17;8.43;;;4.50;;
31728;SDS011;18309;43.658;1.312;2023-05-31T03:26:42;16.38;;;5.05;;
31728;SDS011;18309;43.658;1.312;2023-05-31T03:29:08;12.25;;;4.88;;
31728;SDS011;18309;43.658;1.312;2023-05-31T03:31:34;15.63;;;4.88;;
31728;SDS011;18309;43.658;1.312;2023-05-31T03:34:00;12.00;;;4.75;;
31728;SDS011;18309;43.658;1.312;2023-05-31T03:36:25;14.48;;;5.40;;
31728;SDS011;18309;43.658;1.312;2023-05-31T03:38:51;18.05;;;5.40;;
31728;SDS011;18309;43.658;1.312;2023-05-31T03:41:17;19.80;;;5.35;;
31728;SDS011;18309;43.658;1.312;2023-05-31T03:43:42;14.63;;;5.13;;
31728;SDS011;18309;43.658;1.312;2023-05-31T03:46:08;8.73;;;4.90;;
31728;SDS011;18309;43.658;1.312;2023-05-31T03:48:34;15.60;;;4.57;;
31728;SDS011;18309;43.658;1.312;2023-05-31T03:50:59;11.50;;;4.47;;
31728;SDS011;18309;43.658;1.312;2023-05-31T03:53:25;20.63;;;5.63;;
31728;SDS011;18309;43.658;1.312;2023-05-31T03:55:51;15.18;;;5.22;;
31728;SDS011;18309;43.658;1.312;2023-05-31T03:58:17;11.57;;;4.10;;
31728;SDS011;18309;43.658;1.312;2023-05-31T04:00:43;15.43;;;5.00;;
31728;SDS011;18309;43.658;1.312;2023-05-31T04:03:08;13.95;;;4.75;;
31728;SDS011;18309;43.658;1.312;2023-05-31T04:05:37;10.88;;;5.10;;
31728;SDS011;18309;43.658;1.312;2023-05-31T04:08:03;11.32;;;4.70;;
31728;SDS011;18309;43.658;1.312;2023-05-31T04:10:30;15.05;;;4.47;;
31728;SDS011;18309;43.658;1.312;2023-05-31T04:12:55;13.82;;;4.57;;
31728;SDS011;18309;43.658;1.312;2023-05-31T04:15:21;14.85;;;5.18;;
31728;SDS011;18309;43.658;1.312;2023-05-31T04:17:47;11.05;;;4.72;;
31728;SDS011;18309;43.658;1.312;2023-05-31T04:20:12;10.00;;;5.32;;
31728;SDS011;18309;43.658;1.312;2023-05-31T04:22:38;15.05;;;5.13;;
31728;SDS011;18309;43.658;1.312;2023-05-31T04:25:04;13.15;;;5.53;;
31728;SDS011;18309;43.658;1.312;2023-05-31T04:27:30;16.63;;;5.30;;
31728;SDS011;18309;43.658;1.312;2023-05-31T04:29:58;15.43;;;5.65;;
31728;SDS011;18309;43.658;1.312;2023-05-31T04:32:24;15.98;;;6.32;;
31728;SDS011;18309;43.658;1.312;2023-05-31T04:34:50;10.48;;;4.93;;
31728;SDS011;18309;43.658;1.312;2023-05-31T04:37:25;11.52;;;5.50;;
31728;SDS011;18309;43.658;1.312;2023-05-31T04:39:53;16.40;;;5.88;;
31728;SDS011;18309;43.658;1.312;2023-05-31T04:42:19;11.07;;;5.63;;
31728;SDS011;18309;43.658;1.312;2023-05-31T04:44:45;15.43;;;5.03;;
31728;SDS011;18309;43.658;1.312;2023-05-31T04:47:11;21.65;;;5.80;;
31728;SDS011;18309;43.658;1.312;2023-05-31T04:49:37;14.40;;;5.38;;
31728;SDS011;18309;43.658;1.312;2023-05-31T04:52:02;10.98;;;5.22;;
31728;SDS011;18309;43.658;1.312;2023-05-31T04:54:29;12.10;;;5.28;;
31728;SDS011;18309;43.658;1.312;2023-05-31T04:56:54;17.30;;;5.68;;
31728;SDS011;18309;43.658;1.312;2023-05-31T04:59:20;8.82;;;4.57;;
31728;SDS011;18309;43.658;1.312;2023-05-31T05:01:46;14.50;;;4.90;;
31728;SDS011;18309;43.658;1.312;2023-05-31T05:04:12;14.60;;;4.95;;
31728;SDS011;18309;43.658;1.312;2023-05-31T05:06:38;12.65;;;4.70;;
31728;SDS011;18309;43.658;1.312;2023-05-31T05:09:06;13.68;;;4.75;;
31728;SDS011;18309;43.658;1.312;2023-05-31T05:11:31;13.40;;;4.68;;
31728;SDS011;18309;43.658;1.312;2023-05-31T05:13:57;12.13;;;4.90;;
31728;SDS011;18309;43.658;1.312;2023-05-31T05:16:23;22.33;;;4.90;;
31728;SDS011;18309;43.658;1.312;2023-05-31T05:18:49;19.30;;;5.10;;
31728;SDS011;18309;43.658;1.312;2023-05-31T05:21:14;15.07;;;4.75;;
31728;SDS011;18309;43.658;1.312;2023-05-31T05:23:40;13.10;;;4.70;;
31728;SDS011;18309;43.658;1.312;2023-05-31T05:26:07;15.88;;;4.55;;
31728;SDS011;18309;43.658;1.312;2023-05-31T05:28:33;10.52;;;4.22;;
31728;SDS011;18309;43.658;1.312;2023-05-31T05:30:59;20.40;;;5.18;;
31728;SDS011;18309;43.658;1.312;2023-05-31T05:33:24;12.10;;;4.35;;
31728;SDS011;18309;43.658;1.312;2023-05-31T05:35:51;12.35;;;4.20;;
31728;SDS011;18309;43.658;1.312;2023-05-31T05:38:17;12.32;;;4.50;;
31728;SDS011;18309;43.658;1.312;2023-05-31T05:40:42;11.07;;;4.47;;
31728;SDS011;18309;43.658;1.312;2023-05-31T05:43:08;15.60;;;5.30;;
31728;SDS011;18309;43.658;1.312;2023-05-31T05:45:34;14.18;;;4.40;;
31728;SDS011;18309;43.658;1.312;2023-05-31T05:48:00;22.45;;;6.03;;
31728;SDS011;18309;43.658;1.312;2023-05-31T05:50:26;23.23;;;5.50;;
31728;SDS011;18309;43.658;1.312;2023-05-31T05:52:51;18.17;;;5.85;;
31728;SDS011;18309;43.658;1.312;2023-05-31T05:55:17;16.88;;;6.20;;
31728;SDS011;18309;43.658;1.312;2023-05-31T05:57:44;28.95;;;8.23;;
31728;SDS011;18309;43.658;1.312;2023-05-31T06:00:10;21.10;;;5.82;;
31728;SDS011;18309;43.658;1.312;2023-05-31T06:02:37;15.80;;;7.15;;
31728;SDS011;18309;43.658;1.312;2023-05-31T06:05:03;21.05;;;6.93;;
31728;SDS011;18309;43.658;1.312;2023-05-31T06:07:30;17.35;;;6.82;;
31728;SDS011;18309;43.658;1.312;2023-05-31T06:09:55;19.80;;;7.25;;
31728;SDS011;18309;43.658;1.312;2023-05-31T06:12:21;14.27;;;6.82;;
31728;SDS011;18309;43.658;1.312;2023-05-31T06:14:47;19.05;;;8.00;;
31728;SDS011;18309;43.658;1.312;2023-05-31T06:17:13;14.80;;;7.05;;
31728;SDS011;18309;43.658;1.312;2023-05-31T06:19:39;16.13;;;7.63;;
31728;SDS011;18309;43.658;1.312;2023-05-31T06:22:06;20.35;;;7.55;;
31728;SDS011;18309;43.658;1.312;2023-05-31T06:24:32;15.95;;;9.20;;
31728;SDS011;18309;43.658;1.312;2023-05-31T06:26:57;15.18;;;6.68;;
31728;SDS011;18309;43.658;1.312;2023-05-31T06:29:24;17.92;;;7.00;;
31728;SDS011;18309;43.658;1.312;2023-05-31T06:31:50;17.10;;;6.97;;
31728;SDS011;18309;43.658;1.312;2023-05-31T06:34:16;20.30;;;8.45;;
31728;SDS011;18309;43.658;1.312;2023-05-31T06:36:42;27.48;;;10.80;;
31728;SDS011;18309;43.658;1.312;2023-05-31T06:39:07;17.90;;;10.65;;
31728;SDS011;18309;43.658;1.312;2023-05-31T06:41:35;21.77;;;11.70;;
31728;SDS011;18309;43.658;1.312;2023-05-31T06:44:02;15.27;;;8.20;;
31728;SDS011;18309;43.658;1.312;2023-05-31T06:46:28;20.70;;;10.32;;
31728;SDS011;18309;43.658;1.312;2023-05-31T06:48:54;25.00;;;9.48;;
31728;SDS011;18309;43.658;1.312;2023-05-31T06:51:20;27.55;;;11.63;;
31728;SDS011;18309;43.658;1.312;2023-05-31T06:53:47;22.42;;;9.85;;
31728;SDS011;18309;43.658;1.312;2023-05-31T06:56:14;28.90;;;11.98;;
31728;SDS011;18309;43.658;1.312;2023-05-31T06:58:40;30.63;;;10.68;;
31728;SDS011;18309;43.658;1.312;2023-05-31T07:01:07;34.00;;;11.82;;
31728;SDS011;18309;43.658;1.312;2023-05-31T07:03:32;31.33;;;11.52;;
31728;SDS011;18309;43.658;1.312;2023-05-31T07:05:58;39.05;;;11.07;;
31728;SDS011;18309;43.658;1.312;2023-05-31T07:08:24;25.88;;;12.70;;
31728;SDS011;18309;43.658;1.312;2023-05-31T07:10:50;23.75;;;12.25;;
31728;SDS011;18309;43.658;1.312;2023-05-31T07:13:15;29.17;;;12.63;;
31728;SDS011;18309;43.658;1.312;2023-05-31T07:15:41;23.67;;;12.05;;
31728;SDS011;18309;43.658;1.312;2023-05-31T07:18:07;24.60;;;11.75;;
31728;SDS011;18309;43.658;1.312;2023-05-31T07:20:32;19.83;;;11.35;;
31728;SDS011;18309;43.658;1.312;2023-05-31T07:22:58;22.55;;;11.73;;
31728;SDS011;18309;43.658;1.312;2023-05-31T07:25:24;26.33;;;12.02;;
31728;SDS011;18309;43.658;1.312;2023-05-31T07:27:50;29.00;;;12.60;;
31728;SDS011;18309;43.658;1.312;2023-05-31T07:30:16;34.72;;;14.07;;
31728;SDS011;18309;43.658;1.312;2023-05-31T07:32:41;29.77;;;13.73;;
31728;SDS011;18309;43.658;1.312;2023-05-31T07:35:07;22.98;;;13.27;;
31728;SDS011;18309;43.658;1.312;2023-05-31T07:37:33;28.73;;;15.13;;
31728;SDS011;18309;43.658;1.312;2023-05-31T07:39:59;34.70;;;15.30;;
31728;SDS011;18309;43.658;1.312;2023-05-31T07:42:25;24.88;;;14.23;;
31728;SDS011;18309;43.658;1.312;2023-05-31T07:44:50;33.08;;;16.58;;
31728;SDS011;18309;43.658;1.312;2023-05-31T07:47:16;28.55;;;15.27;;
31728;SDS011;18309;43.658;1.312;2023-05-31T07:49:42;26.15;;;14.45;;
31728;SDS011;18309;43.658;1.312;2023-05-31T07:52:08;31.38;;;16.25;;
31728;SDS011;18309;43.658;1.312;2023-05-31T07:54:33;26.48;;;15.45;;
31728;SDS011;18309;43.658;1.312;2023-05-31T07:56:59;27.27;;;15.48;;
31728;SDS011;18309;43.658;1.312;2023-05-31T07:59:25;31.90;;;16.45;;
31728;SDS011;18309;43.658;1.312;2023-05-31T08:01:51;26.08;;;14.98;;
31728;SDS011;18309;43.658;1.312;2023-05-31T08:04:17;26.55;;;15.00;;
31728;SDS011;18309;43.658;1.312;2023-05-31T08:06:43;29.52;;;15.18;;
31728;SDS011;18309;43.658;1.312;2023-05-31T08:09:09;28.30;;;15.38;;
31728;SDS011;18309;43.658;1.312;2023-05-31T08:11:35;33.97;;;16.20;;
31728;SDS011;18309;43.658;1.312;2023-05-31T08:14:02;32.15;;;16.50;;
31728;SDS011;18309;43.658;1.312;2023-05-31T08:16:31;31.23;;;15.07;;
31728;SDS011;18309;43.658;1.312;2023-05-31T08:18:58;31.77;;;16.35;;
31728;SDS011;18309;43.658;1.312;2023-05-31T08:21:24;24.83;;;15.75;;
31728;SDS011;18309;43.658;1.312;2023-05-31T08:23:49;37.47;;;15.95;;
31728;SDS011;18309;43.658;1.312;2023-05-31T08:26:15;33.10;;;16.52;;
31728;SDS011;18309;43.658;1.312;2023-05-31T08:28:41;38.75;;;17.38;;
31728;SDS011;18309;43.658;1.312;2023-05-31T08:31:07;40.80;;;16.25;;
31728;SDS011;18309;43.658;1.312;2023-05-31T08:33:33;29.52;;;14.30;;
31728;SDS011;18309;43.658;1.312;2023-05-31T08:35:59;27.27;;;14.43;;
31728;SDS011;18309;43.658;1.312;2023-05-31T08:38:29;36.35;;;15.00;;
31728;SDS011;18309;43.658;1.312;2023-05-31T08:40:57;28.40;;;16.33;;
31728;SDS011;18309;43.658;1.312;2023-05-31T08:45:51;32.92;;;14.68;;
31728;SDS011;18309;43.658;1.312;2023-05-31T08:48:21;30.33;;;14.88;;
31728;SDS011;18309;43.658;1.312;2023-05-31T08:50:58;36.60;;;15.00;;
31728;SDS011;18309;43.658;1.312;2023-05-31T08:53:25;41.83;;;15.27;;
31728;SDS011;18309;43.658;1.312;2023-05-31T08:55:54;27.35;;;15.05;;
31728;SDS011;18309;43.658;1.312;2023-05-31T08:58:20;28.52;;;13.60;;
31728;SDS011;18309;43.658;1.312;2023-05-31T09:00:48;29.02;;;14.27;;
31728;SDS011;18309;43.658;1.312;2023-05-31T09:03:14;29.15;;;13.60;;
31728;SDS011;18309;43.658;1.312;2023-05-31T09:05:40;25.23;;;13.45;;
31728;SDS011;18309;43.658;1.312;2023-05-31T09:08:06;34.63;;;14.60;;
31728;SDS011;18309;43.658;1.312;2023-05-31T09:10:32;31.73;;;14.52;;
31728;SDS011;18309;43.658;1.312;2023-05-31T09:12:58;24.65;;;13.23;;
31728;SDS011;18309;43.658;1.312;2023-05-31T09:15:24;27.77;;;14.00;;
31728;SDS011;18309;43.658;1.312;2023-05-31T09:17:50;26.58;;;13.27;;
31728;SDS011;18309;43.658;1.312;2023-05-31T09:20:17;26.95;;;13.43;;
31728;SDS011;18309;43.658;1.312;2023-05-31T09:22:47;27.58;;;13.32;;
31728;SDS011;18309;43.658;1.312;2023-05-31T09:25:16;26.75;;;13.05;;
31728;SDS011;18309;43.658;1.312;2023-05-31T09:27:42;21.85;;;12.57;;
31728;SDS011;18309;43.658;1.312;2023-05-31T09:30:12;29.98;;;12.75;;
31728;SDS011;18309;43.658;1.312;2023-05-31T09:32:39;29.90;;;13.95;;
31728;SDS011;18309;43.658;1.312;2023-05-31T09:35:15;29.83;;;13.30;;
31728;SDS011;18309;43.658;1.312;2023-05-31T09:37:49;46.50;;;14.65;;
31728;SDS011;18309;43.658;1.312;2023-05-31T09:40:22;26.30;;;12.68;;
31728;SDS011;18309;43.658;1.312;2023-05-31T09:42:50;23.75;;;13.43;;
31728;SDS011;18309;43.658;1.312;2023-05-31T09:45:17;27.70;;;13.80;;
31728;SDS011;18309;43.658;1.312;2023-05-31T09:47:44;23.85;;;12.60;;
31728;SDS011;18309;43.658;1.312;2023-05-31T09:50:10;27.17;;;12.90;;
31728;SDS011;18309;43.658;1.312;2023-05-31T09:52:36;25.60;;;12.75;;
31728;SDS011;18309;43.658;1.312;2023-05-31T09:55:09;24.73;;;12.27;;
31728;SDS011;18309;43.658;1.312;2023-05-31T09:57:37;26.92;;;12.73;;
31728;SDS011;18309;43.658;1.312;2023-05-31T10:00:09;29.10;;;13.15;;
31728;SDS011;18309;43.658;1.312;2023-05-31T10:05:16;19.95;;;10.98;;
31728;SDS011;18309;43.658;1.312;2023-05-31T10:07:43;29.58;;;11.65;;
31728;SDS011;18309;43.658;1.312;2023-05-31T10:10:13;28.10;;;11.48;;
31728;SDS011;18309;43.658;1.312;2023-05-31T10:15:37;25.48;;;11.07;;
31728;SDS011;18309;43.658;1.312;2023-05-31T10:18:09;20.33;;;10.05;;
31728;SDS011;18309;43.658;1.312;2023-05-31T10:20:56;24.05;;;10.15;;
31728;SDS011;18309;43.658;1.312;2023-05-31T10:23:25;22.77;;;10.93;;
31728;SDS011;18309;43.658;1.312;2023-05-31T10:28:34;22.30;;;11.43;;
31728;SDS011;18309;43.658;1.312;2023-05-31T10:31:03;25.50;;;9.75;;
31728;SDS011;18309;43.658;1.312;2023-05-31T10:33:29;22.27;;;10.35;;
31728;SDS011;18309;43.658;1.312;2023-05-31T10:35:59;21.23;;;10.40;;
31728;SDS011;18309;43.658;1.312;2023-05-31T10:38:27;22.48;;;10.60;;
31728;SDS011;18309;43.658;1.312;2023-05-31T10:41:01;22.83;;;10.82;;
31728;SDS011;18309;43.658;1.312;2023-05-31T10:43:38;19.75;;;9.88;;
31728;SDS011;18309;43.658;1.312;2023-05-31T10:46:09;18.38;;;10.00;;
31728;SDS011;18309;43.658;1.312;2023-05-31T10:48:51;21.27;;;10.00;;
31728;SDS011;18309;43.658;1.312;2023-05-31T10:51:22;21.23;;;10.68;;
31728;SDS011;18309;43.658;1.312;2023-05-31T10:54:05;19.63;;;9.63;;
31728;SDS011;18309;43.658;1.312;2023-05-31T10:56:31;19.10;;;9.38;;
31728;SDS011;18309;43.658;1.312;2023-05-31T10:58:57;21.63;;;9.38;;
31728;SDS011;18309;43.658;1.312;2023-05-31T11:01:23;17.95;;;10.18;;
31728;SDS011;18309;43.658;1.312;2023-05-31T11:03:55;17.27;;;8.73;;
31728;SDS011;18309;43.658;1.312;2023-05-31T11:06:26;22.38;;;9.50;;
31728;SDS011;18309;43.658;1.312;2023-05-31T11:09:03;17.40;;;9.43;;
31728;SDS011;18309;43.658;1.312;2023-05-31T11:14:08;19.90;;;8.88;;
31728;SDS011;18309;43.658;1.312;2023-05-31T11:19:32;15.77;;;9.15;;
31728;SDS011;18309;43.658;1.312;2023-05-31T11:22:15;13.77;;;8.48;;
31728;SDS011;18309;43.658;1.312;2023-05-31T11:24:48;18.70;;;8.27;;
31728;SDS011;18309;43.658;1.312;2023-05-31T11:27:17;21.23;;;9.38;;
31728;SDS011;18309;43.658;1.312;2023-05-31T11:32:11;25.35;;;10.10;;
31728;SDS011;18309;43.658;1.312;2023-05-31T11:34:50;18.25;;;8.90;;
31728;SDS011;18309;43.658;1.312;2023-05-31T11:37:18;15.23;;;9.32;;
31728;SDS011;18309;43.658;1.312;2023-05-31T11:39:46;22.48;;;8.35;;
31728;SDS011;18309;43.658;1.312;2023-05-31T11:42:13;18.38;;;8.77;;
31728;SDS011;18309;43.658;1.312;2023-05-31T11:44:43;14.85;;;7.88;;
31728;SDS011;18309;43.658;1.312;2023-05-31T11:47:10;19.15;;;7.88;;
31728;SDS011;18309;43.658;1.312;2023-05-31T11:49:42;13.57;;;8.20;;
31728;SDS011;18309;43.658;1.312;2023-05-31T11:52:09;15.73;;;8.45;;
31728;SDS011;18309;43.658;1.312;2023-05-31T11:54:44;14.75;;;7.88;;
31728;SDS011;18309;43.658;1.312;2023-05-31T11:57:10;19.27;;;8.10;;
31728;SDS011;18309;43.658;1.312;2023-05-31T11:59:37;23.58;;;8.77;;
31728;SDS011;18309;43.658;1.312;2023-05-31T12:02:07;22.77;;;8.68;;
31728;SDS011;18309;43.658;1.312;2023-05-31T12:04:37;15.93;;;8.40;;
31728;SDS011;18309;43.658;1.312;2023-05-31T12:07:04;17.58;;;8.68;;
31728;SDS011;18309;43.658;1.312;2023-05-31T12:09:32;17.15;;;8.40;;
31728;SDS011;18309;43.658;1.312;2023-05-31T12:11:59;31.45;;;8.70;;
31728;SDS011;18309;43.658;1.312;2023-05-31T12:14:25;16.05;;;8.15;;
31728;SDS011;18309;43.658;1.312;2023-05-31T12:16:54;16.08;;;7.65;;
31728;SDS011;18309;43.658;1.312;2023-05-31T12:19:20;15.18;;;7.28;;
31728;SDS011;18309;43.658;1.312;2023-05-31T12:21:46;17.75;;;7.55;;
31728;SDS011;18309;43.658;1.312;2023-05-31T12:24:13;16.40;;;7.13;;
31728;SDS011;18309;43.658;1.312;2023-05-31T12:26:44;20.13;;;8.15;;
31728;SDS011;18309;43.658;1.312;2023-05-31T12:29:13;14.60;;;7.70;;
31728;SDS011;18309;43.658;1.312;2023-05-31T12:31:40;14.25;;;6.82;;
31728;SDS011;18309;43.658;1.312;2023-05-31T12:36:36;18.73;;;8.00;;
31728;SDS011;18309;43.658;1.312;2023-05-31T12:41:46;12.70;;;7.28;;
31728;SDS011;18309;43.658;1.312;2023-05-31T12:44:18;15.98;;;7.22;;
31728;SDS011;18309;43.658;1.312;2023-05-31T12:46:48;14.60;;;6.95;;
31728;SDS011;18309;43.658;1.312;2023-05-31T12:51:47;15.45;;;7.22;;
31728;SDS011;18309;43.658;1.312;2023-05-31T12:54:31;19.20;;;7.78;;
31728;SDS011;18309;43.658;1.312;2023-05-31T12:57:01;18.25;;;7.38;;
31728;SDS011;18309;43.658;1.312;2023-05-31T12:59:30;16.40;;;7.07;;
31728;SDS011;18309;43.658;1.312;2023-05-31T13:01:59;18.20;;;6.90;;
31728;SDS011;18309;43.658;1.312;2023-05-31T13:04:26;11.85;;;6.43;;
31728;SDS011;18309;43.658;1.312;2023-05-31T13:06:52;17.60;;;7.13;;
31728;SDS011;18309;43.658;1.312;2023-05-31T13:09:18;18.33;;;6.78;;
31728;SDS011;18309;43.658;1.312;2023-05-31T13:11:45;17.20;;;6.82;;
31728;SDS011;18309;43.658;1.312;2023-05-31T13:14:15;10.95;;;6.68;;
31728;SDS011;18309;43.658;1.312;2023-05-31T13:16:43;12.43;;;5.68;;
31728;SDS011;18309;43.658;1.312;2023-05-31T13:19:09;18.98;;;7.05;;
31728;SDS011;18309;43.658;1.312;2023-05-31T13:21:36;12.73;;;6.60;;
31728;SDS011;18309;43.658;1.312;2023-05-31T13:24:02;11.68;;;6.68;;
31728;SDS011;18309;43.658;1.312;2023-05-31T13:26:29;14.23;;;7.25;;
31728;SDS011;18309;43.658;1.312;2023-05-31T13:28:55;11.15;;;6.47;;
31728;SDS011;18309;43.658;1.312;2023-05-31T13:31:22;9.93;;;5.63;;
31728;SDS011;18309;43.658;1.312;2023-05-31T13:33:49;12.70;;;6.75;;
31728;SDS011;18309;43.658;1.312;2023-05-31T13:36:15;15.38;;;6.97;;
31728;SDS011;18309;43.658;1.312;2023-05-31T13:38:42;15.95;;;6.32;;
31728;SDS011;18309;43.658;1.312;2023-05-31T13:41:08;15.60;;;6.63;;
31728;SDS011;18309;43.658;1.312;2023-05-31T13:43:34;10.90;;;6.05;;
31728;SDS011;18309;43.658;1.312;2023-05-31T13:46:02;13.80;;;6.13;;
31728;SDS011;18309;43.658;1.312;2023-05-31T13:48:28;12.00;;;4.43;;
31728;SDS011;18309;43.658;1.312;2023-05-31T13:50:54;9.73;;;3.45;;
31728;SDS011;18309;43.658;1.312;2023-05-31T13:53:20;9.15;;;3.22;;
31728;SDS011;18309;43.658;1.312;2023-05-31T13:55:46;16.90;;;3.80;;
31728;SDS011;18309;43.658;1.312;2023-05-31T13:58:12;6.63;;;3.00;;
31728;SDS011;18309;43.658;1.312;2023-05-31T14:00:38;11.15;;;2.63;;
31728;SDS011;18309;43.658;1.312;2023-05-31T14:03:04;9.18;;;2.88;;
31728;SDS011;18309;43.658;1.312;2023-05-31T14:05:30;11.43;;;3.78;;
31728;SDS011;18309;43.658;1.312;2023-05-31T14:07:55;9.98;;;2.83;;
31728;SDS011;18309;43.658;1.312;2023-05-31T14:10:22;7.13;;;2.83;;
31728;SDS011;18309;43.658;1.312;2023-05-31T14:12:48;9.75;;;3.13;;
31728;SDS011;18309;43.658;1.312;2023-05-31T14:15:14;8.27;;;3.65;;
31728;SDS011;18309;43.658;1.312;2023-05-31T14:17:41;7.32;;;3.47;;
31728;SDS011;18309;43.658;1.312;2023-05-31T14:20:07;7.07;;;3.25;;
31728;SDS011;18309;43.658;1.312;2023-05-31T14:22:33;6.82;;;3.15;;
31728;SDS011;18309;43.658;1.312;2023-05-31T14:24:59;10.15;;;3.65;;
31728;SDS011;18309;43.658;1.312;2023-05-31T14:27:25;8.18;;;3.15;;
31728;SDS011;18309;43.658;1.312;2023-05-31T14:29:51;9.15;;;3.40;;
31728;SDS011;18309;43.658;1.312;2023-05-31T14:32:17;8.43;;;3.30;;
31728;SDS011;18309;43.658;1.312;2023-05-31T14:34:43;9.75;;;2.85;;
31728;SDS011;18309;43.658;1.312;2023-05-31T14:37:10;7.88;;;3.30;;
31728;SDS011;18309;43.658;1.312;2023-05-31T14:39:36;5.75;;;2.90;;
31728;SDS011;18309;43.658;1.312;2023-05-31T14:42:02;9.65;;;2.90;;
31728;SDS011;18309;43.658;1.312;2023-05-31T14:44:29;10.75;;;3.13;;
31728;SDS011;18309;43.658;1.312;2023-05-31T14:46:54;5.43;;;2.85;;
31728;SDS011;18309;43.658;1.312;2023-05-31T14:49:21;6.57;;;2.30;;
31728;SDS011;18309;43.658;1.312;2023-05-31T14:51:48;6.75;;;2.58;;
31728;SDS011;18309;43.658;1.312;2023-05-31T14:54:15;5.95;;;2.75;;
31728;SDS011;18309;43.658;1.312;2023-05-31T14:56:44;3.25;;;2.33;;
31728;SDS011;18309;43.658;1.312;2023-05-31T14:59:10;3.88;;;2.60;;
31728;SDS011;18309;43.658;1.312;2023-05-31T15:01:36;8.05;;;3.20;;
31728;SDS011;18309;43.658;1.312;2023-05-31T15:04:11;8.20;;;2.47;;